sensor_id;sensor_type;location;lat;lon;timestamp;temperature;humidity
70708;SHT30;58277;47.316;18.908;2024-02-28T00:01:16;12.45;72.38
70708;SHT30;58277;47.316;18.908;2024-02-28T00:03:39;12.47;72.58
70708;SHT30;58277;47.316;18.908;2024-02-28T00:06:02;12.47;72.73
70708;SHT30;58277;47.316;18.908;2024-02-28T00:08:25;12.16;73.29
70708;SHT30;58277;47.316;18.908;2024-02-28T00:10:48;12.17;73.15
70708;SHT30;58277;47.316;18.908;2024-02-28T00:13:11;12.04;73.41
70708;SHT30;58277;47.316;18.908;2024-02-28T00:15:33;12.06;73.51
70708;SHT30;58277;47.316;18.908;2024-02-28T00:17:56;12.21;73.28
70708;SHT30;58277;47.316;18.908;2024-02-28T00:20:19;12.33;72.92
70708;SHT30;58277;47.316;18.908;2024-02-28T00:22:42;12.37;72.83
70708;SHT30;58277;47.316;18.908;2024-02-28T00:25:06;12.40;72.68
70708;SHT30;58277;47.316;18.908;2024-02-28T00:27:30;12.38;72.72
70708;SHT30;58277;47.316;18.908;2024-02-28T00:29:53;12.31;72.55
70708;SHT30;58277;47.316;18.908;2024-02-28T00:32:16;12.26;72.81
70708;SHT30;58277;47.316;18.908;2024-02-28T00:34:38;12.30;72.76
70708;SHT30;58277;47.316;18.908;2024-02-28T00:37:01;12.31;73.02
70708;SHT30;58277;47.316;18.908;2024-02-28T00:39:24;12.34;73.06
70708;SHT30;58277;47.316;18.908;2024-02-28T00:41:47;12.33;73.28
70708;SHT30;58277;47.316;18.908;2024-02-28T00:44:10;12.13;73.41
70708;SHT30;58277;47.316;18.908;2024-02-28T00:46:34;11.99;73.63
70708;SHT30;58277;47.316;18.908;2024-02-28T00:48:57;12.02;73.76
70708;SHT30;58277;47.316;18.908;2024-02-28T00:51:19;11.81;73.97
70708;SHT30;58277;47.316;18.908;2024-02-28T00:53:42;11.89;74.02
70708;SHT30;58277;47.316;18.908;2024-02-28T00:56:05;12.02;73.69
70708;SHT30;58277;47.316;18.908;2024-02-28T00:58:28;11.97;73.81
70708;SHT30;58277;47.316;18.908;2024-02-28T01:00:52;11.75;74.28
70708;SHT30;58277;47.316;18.908;2024-02-28T01:03:15;11.78;74.33
70708;SHT30;58277;47.316;18.908;2024-02-28T01:05:38;11.89;74.01
70708;SHT30;58277;47.316;18.908;2024-02-28T01:08:01;11.94;73.90
70708;SHT30;58277;47.316;18.908;2024-02-28T01:10:24;12.04;73.59
70708;SHT30;58277;47.316;18.908;2024-02-28T01:12:47;11.99;73.66
70708;SHT30;58277;47.316;18.908;2024-02-28T01:15:09;12.06;73.57
70708;SHT30;58277;47.316;18.908;2024-02-28T01:17:32;11.92;73.92
70708;SHT30;58277;47.316;18.908;2024-02-28T01:19:55;11.82;74.02
70708;SHT30;58277;47.316;18.908;2024-02-28T01:22:18;11.79;74.34
70708;SHT30;58277;47.316;18.908;2024-02-28T01:24:40;11.66;75.07
70708;SHT30;58277;47.316;18.908;2024-02-28T01:27:03;11.72;75.07
70708;SHT30;58277;47.316;18.908;2024-02-28T01:29:26;11.75;75.00
70708;SHT30;58277;47.316;18.908;2024-02-28T01:31:49;11.59;75.12
70708;SHT30;58277;47.316;18.908;2024-02-28T01:34:11;11.59;75.07
70708;SHT30;58277;47.316;18.908;2024-02-28T01:36:34;11.58;75.38
70708;SHT30;58277;47.316;18.908;2024-02-28T01:38:57;11.61;75.46
70708;SHT30;58277;47.316;18.908;2024-02-28T01:41:20;11.64;75.45
70708;SHT30;58277;47.316;18.908;2024-02-28T01:43:43;11.72;75.00
70708;SHT30;58277;47.316;18.908;2024-02-28T01:46:25;11.69;75.09
70708;SHT30;58277;47.316;18.908;2024-02-28T01:48:48;11.62;75.36
70708;SHT30;58277;47.316;18.908;2024-02-28T01:51:12;11.68;75.25
70708;SHT30;58277;47.316;18.908;2024-02-28T01:53:35;11.62;75.22
70708;SHT30;58277;47.316;18.908;2024-02-28T01:55:58;11.64;75.11
70708;SHT30;58277;47.316;18.908;2024-02-28T01:58:21;11.50;75.42
70708;SHT30;58277;47.316;18.908;2024-02-28T02:00:45;11.42;75.91
70708;SHT30;58277;47.316;18.908;2024-02-28T02:03:08;11.35;76.16
70708;SHT30;58277;47.316;18.908;2024-02-28T02:05:31;11.41;76.02
70708;SHT30;58277;47.316;18.908;2024-02-28T02:07:57;11.27;76.11
70708;SHT30;58277;47.316;18.908;2024-02-28T02:10:20;11.41;76.09
70708;SHT30;58277;47.316;18.908;2024-02-28T02:12:43;11.47;76.15
70708;SHT30;58277;47.316;18.908;2024-02-28T02:15:06;11.45;75.85
70708;SHT30;58277;47.316;18.908;2024-02-28T02:17:29;11.48;75.71
70708;SHT30;58277;47.316;18.908;2024-02-28T02:19:52;11.58;75.65
70708;SHT30;58277;47.316;18.908;2024-02-28T02:22:16;11.35;75.64
70708;SHT30;58277;47.316;18.908;2024-02-28T02:24:40;11.31;76.07
70708;SHT30;58277;47.316;18.908;2024-02-28T02:27:04;11.28;76.16
70708;SHT30;58277;47.316;18.908;2024-02-28T02:29:27;11.21;76.33
70708;SHT30;58277;47.316;18.908;2024-02-28T02:31:51;11.27;76.34
70708;SHT30;58277;47.316;18.908;2024-02-28T02:34:14;11.34;76.24
70708;SHT30;58277;47.316;18.908;2024-02-28T02:36:36;11.28;75.91
70708;SHT30;58277;47.316;18.908;2024-02-28T02:38:59;11.23;76.55
70708;SHT30;58277;47.316;18.908;2024-02-28T02:41:22;11.18;76.33
70708;SHT30;58277;47.316;18.908;2024-02-28T02:43:44;11.18;76.26
70708;SHT30;58277;47.316;18.908;2024-02-28T02:46:07;11.10;76.58
70708;SHT30;58277;47.316;18.908;2024-02-28T02:48:30;11.06;76.59
70708;SHT30;58277;47.316;18.908;2024-02-28T02:50:53;11.21;76.27
70708;SHT30;58277;47.316;18.908;2024-02-28T02:53:15;11.27;76.05
70708;SHT30;58277;47.316;18.908;2024-02-28T02:55:38;11.18;76.09
70708;SHT30;58277;47.316;18.908;2024-02-28T02:58:02;11.31;75.81
70708;SHT30;58277;47.316;18.908;2024-02-28T03:00:25;11.37;75.85
70708;SHT30;58277;47.316;18.908;2024-02-28T03:02:48;11.38;75.69
70708;SHT30;58277;47.316;18.908;2024-02-28T03:05:10;11.41;75.48
70708;SHT30;58277;47.316;18.908;2024-02-28T03:07:33;11.20;75.91
70708;SHT30;58277;47.316;18.908;2024-02-28T03:09:56;11.07;76.42
70708;SHT30;58277;47.316;18.908;2024-02-28T03:12:19;11.21;76.13
70708;SHT30;58277;47.316;18.908;2024-02-28T03:14:42;11.28;75.86
70708;SHT30;58277;47.316;18.908;2024-02-28T03:17:05;11.17;75.98
70708;SHT30;58277;47.316;18.908;2024-02-28T03:19:28;11.24;75.74
70708;SHT30;58277;47.316;18.908;2024-02-28T03:21:50;11.10;76.05
70708;SHT30;58277;47.316;18.908;2024-02-28T03:24:13;11.00;76.42
70708;SHT30;58277;47.316;18.908;2024-02-28T03:26:37;11.20;75.74
70708;SHT30;58277;47.316;18.908;2024-02-28T03:28:59;11.10;76.18
70708;SHT30;58277;47.316;18.908;2024-02-28T03:31:22;11.01;76.30
70708;SHT30;58277;47.316;18.908;2024-02-28T03:33:45;10.89;76.33
70708;SHT30;58277;47.316;18.908;2024-02-28T03:36:09;10.81;76.72
70708;SHT30;58277;47.316;18.908;2024-02-28T03:38:33;10.72;77.00
70708;SHT30;58277;47.316;18.908;2024-02-28T03:40:56;10.70;77.03
70708;SHT30;58277;47.316;18.908;2024-02-28T03:43:18;10.62;77.23
70708;SHT30;58277;47.316;18.908;2024-02-28T03:45:41;10.58;77.02
70708;SHT30;58277;47.316;18.908;2024-02-28T03:48:05;10.52;77.46
70708;SHT30;58277;47.316;18.908;2024-02-28T03:50:27;10.58;77.27
70708;SHT30;58277;47.316;18.908;2024-02-28T03:52:50;10.66;77.00
70708;SHT30;58277;47.316;18.908;2024-02-28T03:55:13;10.58;76.88
70708;SHT30;58277;47.316;18.908;2024-02-28T03:57:37;10.63;76.87
70708;SHT30;58277;47.316;18.908;2024-02-28T04:00:01;10.90;76.12
70708;SHT30;58277;47.316;18.908;2024-02-28T04:02:33;10.73;76.22
70708;SHT30;58277;47.316;18.908;2024-02-28T04:04:56;10.83;76.25
70708;SHT30;58277;47.316;18.908;2024-02-28T04:07:18;10.80;76.08
70708;SHT30;58277;47.316;18.908;2024-02-28T04:09:41;10.69;76.56
70708;SHT30;58277;47.316;18.908;2024-02-28T04:12:04;10.61;76.69
70708;SHT30;58277;47.316;18.908;2024-02-28T04:14:28;10.48;76.91
70708;SHT30;58277;47.316;18.908;2024-02-28T04:16:50;10.48;77.04
70708;SHT30;58277;47.316;18.908;2024-02-28T04:19:13;10.44;77.13
70708;SHT30;58277;47.316;18.908;2024-02-28T04:21:36;10.38;77.30
70708;SHT30;58277;47.316;18.908;2024-02-28T04:23:59;10.28;77.52
70708;SHT30;58277;47.316;18.908;2024-02-28T04:26:22;10.35;77.33
70708;SHT30;58277;47.316;18.908;2024-02-28T04:28:45;10.40;77.01
70708;SHT30;58277;47.316;18.908;2024-02-28T04:31:07;10.40;77.09
70708;SHT30;58277;47.316;18.908;2024-02-28T04:33:31;10.37;77.05
70708;SHT30;58277;47.316;18.908;2024-02-28T04:35:54;10.46;76.91
70708;SHT30;58277;47.316;18.908;2024-02-28T04:38:17;10.61;76.51
70708;SHT30;58277;47.316;18.908;2024-02-28T04:40:40;10.58;76.39
70708;SHT30;58277;47.316;18.908;2024-02-28T04:43:02;10.56;76.34
70708;SHT30;58277;47.316;18.908;2024-02-28T04:45:26;10.56;76.51
70708;SHT30;58277;47.316;18.908;2024-02-28T04:47:48;10.44;76.82
70708;SHT30;58277;47.316;18.908;2024-02-28T04:50:14;10.49;77.10
70708;SHT30;58277;47.316;18.908;2024-02-28T04:52:37;10.48;77.06
70708;SHT30;58277;47.316;18.908;2024-02-28T04:55:00;10.53;77.06
70708;SHT30;58277;47.316;18.908;2024-02-28T04:57:24;10.58;77.11
70708;SHT30;58277;47.316;18.908;2024-02-28T04:59:47;10.66;76.49
70708;SHT30;58277;47.316;18.908;2024-02-28T05:02:10;10.59;76.55
70708;SHT30;58277;47.316;18.908;2024-02-28T05:04:33;10.59;76.58
70708;SHT30;58277;47.316;18.908;2024-02-28T05:06:55;10.62;76.35
70708;SHT30;58277;47.316;18.908;2024-02-28T05:09:18;10.72;75.91
70708;SHT30;58277;47.316;18.908;2024-02-28T05:11:41;10.65;75.80
70708;SHT30;58277;47.316;18.908;2024-02-28T05:14:04;10.77;75.44
70708;SHT30;58277;47.316;18.908;2024-02-28T05:16:27;10.88;75.23
70708;SHT30;58277;47.316;18.908;2024-02-28T05:18:49;10.93;74.95
70708;SHT30;58277;47.316;18.908;2024-02-28T05:21:13;10.96;74.65
70708;SHT30;58277;47.316;18.908;2024-02-28T05:23:36;10.89;74.83
70708;SHT30;58277;47.316;18.908;2024-02-28T05:25:59;10.72;75.47
70708;SHT30;58277;47.316;18.908;2024-02-28T05:28:26;10.65;75.78
70708;SHT30;58277;47.316;18.908;2024-02-28T05:30:49;10.73;75.66
70708;SHT30;58277;47.316;18.908;2024-02-28T05:33:12;10.55;75.90
70708;SHT30;58277;47.316;18.908;2024-02-28T05:35:35;10.56;76.05
70708;SHT30;58277;47.316;18.908;2024-02-28T05:37:58;10.68;75.68
70708;SHT30;58277;47.316;18.908;2024-02-28T05:40:20;10.75;75.82
70708;SHT30;58277;47.316;18.908;2024-02-28T05:42:43;10.61;75.96
70708;SHT30;58277;47.316;18.908;2024-02-28T05:45:06;10.48;76.35
70708;SHT30;58277;47.316;18.908;2024-02-28T05:47:29;10.37;76.67
70708;SHT30;58277;47.316;18.908;2024-02-28T05:49:52;10.37;77.07
70708;SHT30;58277;47.316;18.908;2024-02-28T05:52:15;10.53;76.82
70708;SHT30;58277;47.316;18.908;2024-02-28T05:54:37;10.53;76.83
70708;SHT30;58277;47.316;18.908;2024-02-28T05:57:00;10.40;77.31
70708;SHT30;58277;47.316;18.908;2024-02-28T05:59:23;10.40;77.42
70708;SHT30;58277;47.316;18.908;2024-02-28T06:01:47;10.40;77.27
70708;SHT30;58277;47.316;18.908;2024-02-28T06:04:10;10.42;77.01
70708;SHT30;58277;47.316;18.908;2024-02-28T06:06:33;10.44;77.20
70708;SHT30;58277;47.316;18.908;2024-02-28T06:08:56;10.35;77.10
70708;SHT30;58277;47.316;18.908;2024-02-28T06:11:19;10.40;76.82
70708;SHT30;58277;47.316;18.908;2024-02-28T06:13:42;10.34;76.65
70708;SHT30;58277;47.316;18.908;2024-02-28T06:16:13;10.32;76.79
70708;SHT30;58277;47.316;18.908;2024-02-28T06:18:38;10.10;77.35
70708;SHT30;58277;47.316;18.908;2024-02-28T06:21:00;10.03;77.55
70708;SHT30;58277;47.316;18.908;2024-02-28T06:23:24;9.98;77.77
70708;SHT30;58277;47.316;18.908;2024-02-28T06:25:51;9.95;77.81
70708;SHT30;58277;47.316;18.908;2024-02-28T06:28:14;10.01;77.91
70708;SHT30;58277;47.316;18.908;2024-02-28T06:30:37;10.11;77.57
70708;SHT30;58277;47.316;18.908;2024-02-28T06:33:00;10.20;76.95
70708;SHT30;58277;47.316;18.908;2024-02-28T06:35:23;10.22;76.86
70708;SHT30;58277;47.316;18.908;2024-02-28T06:37:46;10.34;76.74
70708;SHT30;58277;47.316;18.908;2024-02-28T06:40:12;10.28;76.33
70708;SHT30;58277;47.316;18.908;2024-02-28T06:42:35;10.41;76.23
70708;SHT30;58277;47.316;18.908;2024-02-28T06:44:59;10.55;75.85
70708;SHT30;58277;47.316;18.908;2024-02-28T06:47:22;10.48;75.92
70708;SHT30;58277;47.316;18.908;2024-02-28T06:49:45;10.53;75.64
70708;SHT30;58277;47.316;18.908;2024-02-28T06:52:11;10.68;75.14
70708;SHT30;58277;47.316;18.908;2024-02-28T06:54:36;10.80;74.96
70708;SHT30;58277;47.316;18.908;2024-02-28T06:56:59;10.62;75.43
70708;SHT30;58277;47.316;18.908;2024-02-28T06:59:22;10.68;75.35
70708;SHT30;58277;47.316;18.908;2024-02-28T07:01:45;10.77;75.29
70708;SHT30;58277;47.316;18.908;2024-02-28T07:04:08;10.75;75.20
70708;SHT30;58277;47.316;18.908;2024-02-28T07:06:31;11.01;74.73
70708;SHT30;58277;47.316;18.908;2024-02-28T07:08:54;11.14;74.30
70708;SHT30;58277;47.316;18.908;2024-02-28T07:11:17;11.16;73.98
70708;SHT30;58277;47.316;18.908;2024-02-28T07:13:40;11.44;73.19
70708;SHT30;58277;47.316;18.908;2024-02-28T07:16:03;11.50;73.26
70708;SHT30;58277;47.316;18.908;2024-02-28T07:18:26;11.47;73.09
70708;SHT30;58277;47.316;18.908;2024-02-28T07:20:51;11.81;72.11
70708;SHT30;58277;47.316;18.908;2024-02-28T07:23:14;12.04;71.22
70708;SHT30;58277;47.316;18.908;2024-02-28T07:25:37;12.20;70.70
70708;SHT30;58277;47.316;18.908;2024-02-28T07:28:00;11.93;70.17
70708;SHT30;58277;47.316;18.908;2024-02-28T07:30:24;12.06;70.49
70708;SHT30;58277;47.316;18.908;2024-02-28T07:32:47;12.40;69.91
70708;SHT30;58277;47.316;18.908;2024-02-28T07:35:12;12.31;69.14
70708;SHT30;58277;47.316;18.908;2024-02-28T07:37:35;12.13;70.46
70708;SHT30;58277;47.316;18.908;2024-02-28T07:40:00;12.14;69.76
70708;SHT30;58277;47.316;18.908;2024-02-28T07:42:23;12.24;70.07
70708;SHT30;58277;47.316;18.908;2024-02-28T07:44:48;12.77;68.80
70708;SHT30;58277;47.316;18.908;2024-02-28T07:47:15;13.13;67.99
70708;SHT30;58277;47.316;18.908;2024-02-28T07:49:38;13.06;67.79
70708;SHT30;58277;47.316;18.908;2024-02-28T07:52:01;12.91;67.98
70708;SHT30;58277;47.316;18.908;2024-02-28T07:54:27;13.00;67.63
70708;SHT30;58277;47.316;18.908;2024-02-28T07:56:51;13.40;67.11
70708;SHT30;58277;47.316;18.908;2024-02-28T07:59:14;13.60;66.73
70708;SHT30;58277;47.316;18.908;2024-02-28T08:01:37;14.12;65.19
70708;SHT30;58277;47.316;18.908;2024-02-28T08:04:06;14.66;63.83
70708;SHT30;58277;47.316;18.908;2024-02-28T08:06:29;14.43;63.19
70708;SHT30;58277;47.316;18.908;2024-02-28T08:08:52;14.32;64.00
70708;SHT30;58277;47.316;18.908;2024-02-28T08:11:15;13.78;65.41
70708;SHT30;58277;47.316;18.908;2024-02-28T08:13:38;13.24;66.88
70708;SHT30;58277;47.316;18.908;2024-02-28T08:16:01;13.06;68.09
70708;SHT30;58277;47.316;18.908;2024-02-28T08:18:27;13.09;67.55
70708;SHT30;58277;47.316;18.908;2024-02-28T08:20:54;13.02;67.36
70708;SHT30;58277;47.316;18.908;2024-02-28T08:23:19;12.93;68.14
70708;SHT30;58277;47.316;18.908;2024-02-28T08:25:43;12.85;68.44
70708;SHT30;58277;47.316;18.908;2024-02-28T08:28:06;12.75;69.13
70708;SHT30;58277;47.316;18.908;2024-02-28T08:30:29;12.75;68.92
70708;SHT30;58277;47.316;18.908;2024-02-28T08:32:52;12.69;68.96
70708;SHT30;58277;47.316;18.908;2024-02-28T08:35:17;12.96;68.13
70708;SHT30;58277;47.316;18.908;2024-02-28T08:37:41;13.02;68.55
70708;SHT30;58277;47.316;18.908;2024-02-28T08:40:04;13.28;68.47
70708;SHT30;58277;47.316;18.908;2024-02-28T08:42:30;13.28;67.56
70708;SHT30;58277;47.316;18.908;2024-02-28T08:44:53;13.63;68.13
70708;SHT30;58277;47.316;18.908;2024-02-28T08:47:17;13.86;66.76
70708;SHT30;58277;47.316;18.908;2024-02-28T08:49:44;13.74;65.96
70708;SHT30;58277;47.316;18.908;2024-02-28T08:52:07;13.55;66.57
70708;SHT30;58277;47.316;18.908;2024-02-28T08:54:30;13.48;67.05
70708;SHT30;58277;47.316;18.908;2024-02-28T08:56:53;13.78;66.58
70708;SHT30;58277;47.316;18.908;2024-02-28T08:59:25;13.73;66.36
70708;SHT30;58277;47.316;18.908;2024-02-28T09:01:49;13.88;66.92
70708;SHT30;58277;47.316;18.908;2024-02-28T09:04:14;13.91;66.09
70708;SHT30;58277;47.316;18.908;2024-02-28T09:06:37;13.84;66.32
70708;SHT30;58277;47.316;18.908;2024-02-28T09:09:01;14.00;65.71
70708;SHT30;58277;47.316;18.908;2024-02-28T09:11:25;14.25;65.15
70708;SHT30;58277;47.316;18.908;2024-02-28T09:13:48;14.34;65.07
70708;SHT30;58277;47.316;18.908;2024-02-28T09:16:11;14.56;64.58
70708;SHT30;58277;47.316;18.908;2024-02-28T09:18:34;14.40;64.77
70708;SHT30;58277;47.316;18.908;2024-02-28T09:20:57;14.41;64.76
70708;SHT30;58277;47.316;18.908;2024-02-28T09:23:20;14.63;63.63
70708;SHT30;58277;47.316;18.908;2024-02-28T09:25:43;14.56;64.63
70708;SHT30;58277;47.316;18.908;2024-02-28T09:28:06;14.25;64.85
70708;SHT30;58277;47.316;18.908;2024-02-28T09:30:32;14.41;65.18
70708;SHT30;58277;47.316;18.908;2024-02-28T09:33:07;14.50;64.90
70708;SHT30;58277;47.316;18.908;2024-02-28T09:35:31;14.67;64.21
70708;SHT30;58277;47.316;18.908;2024-02-28T09:37:54;14.70;64.06
70708;SHT30;58277;47.316;18.908;2024-02-28T09:40:18;14.57;64.39
70708;SHT30;58277;47.316;18.908;2024-02-28T09:42:41;14.33;64.84
70708;SHT30;58277;47.316;18.908;2024-02-28T09:45:09;14.22;65.50
70708;SHT30;58277;47.316;18.908;2024-02-28T09:47:34;14.32;65.28
70708;SHT30;58277;47.316;18.908;2024-02-28T09:50:01;14.23;65.21
70708;SHT30;58277;47.316;18.908;2024-02-28T09:52:25;14.20;64.97
70708;SHT30;58277;47.316;18.908;2024-02-28T09:54:50;14.34;64.93
70708;SHT30;58277;47.316;18.908;2024-02-28T09:57:13;14.39;64.78
70708;SHT30;58277;47.316;18.908;2024-02-28T09:59:38;14.64;64.68
70708;SHT30;58277;47.316;18.908;2024-02-28T10:02:19;14.59;63.81
70708;SHT30;58277;47.316;18.908;2024-02-28T10:04:46;14.67;64.37
70708;SHT30;58277;47.316;18.908;2024-02-28T10:07:13;14.85;64.01
70708;SHT30;58277;47.316;18.908;2024-02-28T10:09:36;14.84;63.65
70708;SHT30;58277;47.316;18.908;2024-02-28T10:12:02;15.01;64.10
70708;SHT30;58277;47.316;18.908;2024-02-28T10:14:25;14.89;63.78
70708;SHT30;58277;47.316;18.908;2024-02-28T10:16:52;14.83;63.85
70708;SHT30;58277;47.316;18.908;2024-02-28T10:19:16;15.04;63.12
70708;SHT30;58277;47.316;18.908;2024-02-28T10:21:39;15.06;63.02
70708;SHT30;58277;47.316;18.908;2024-02-28T10:24:06;15.25;62.95
70708;SHT30;58277;47.316;18.908;2024-02-28T10:26:30;15.33;62.91
70708;SHT30;58277;47.316;18.908;2024-02-28T10:28:58;15.32;62.79
70708;SHT30;58277;47.316;18.908;2024-02-28T10:31:22;15.19;62.66
70708;SHT30;58277;47.316;18.908;2024-02-28T10:33:48;15.11;63.03
70708;SHT30;58277;47.316;18.908;2024-02-28T10:36:12;15.32;62.75
70708;SHT30;58277;47.316;18.908;2024-02-28T10:38:36;15.33;62.64
70708;SHT30;58277;47.316;18.908;2024-02-28T10:41:01;15.38;62.91
70708;SHT30;58277;47.316;18.908;2024-02-28T10:43:28;15.62;62.57
70708;SHT30;58277;47.316;18.908;2024-02-28T10:45:57;15.80;62.16
70708;SHT30;58277;47.316;18.908;2024-02-28T10:48:41;15.79;62.24
70708;SHT30;58277;47.316;18.908;2024-02-28T10:51:04;15.70;61.92
70708;SHT30;58277;47.316;18.908;2024-02-28T10:53:49;15.81;62.00
70708;SHT30;58277;47.316;18.908;2024-02-28T10:56:17;16.08;61.07
70708;SHT30;58277;47.316;18.908;2024-02-28T10:58:51;16.29;60.29
70708;SHT30;58277;47.316;18.908;2024-02-28T11:01:20;16.22;61.02
70708;SHT30;58277;47.316;18.908;2024-02-28T11:03:45;16.07;61.13
70708;SHT30;58277;47.316;18.908;2024-02-28T11:06:18;16.21;61.49
70708;SHT30;58277;47.316;18.908;2024-02-28T11:08:46;16.25;61.15
70708;SHT30;58277;47.316;18.908;2024-02-28T11:11:14;16.39;60.70
70708;SHT30;58277;47.316;18.908;2024-02-28T11:13:37;16.26;60.86
70708;SHT30;58277;47.316;18.908;2024-02-28T11:16:10;16.25;60.89
70708;SHT30;58277;47.316;18.908;2024-02-28T11:18:35;16.41;61.20
70708;SHT30;58277;47.316;18.908;2024-02-28T11:20:58;16.62;60.05
70708;SHT30;58277;47.316;18.908;2024-02-28T11:23:21;16.58;60.11
70708;SHT30;58277;47.316;18.908;2024-02-28T11:25:44;16.59;60.24
70708;SHT30;58277;47.316;18.908;2024-02-28T11:28:08;16.29;60.59
70708;SHT30;58277;47.316;18.908;2024-02-28T11:30:31;16.42;60.82
70708;SHT30;58277;47.316;18.908;2024-02-28T11:32:55;16.66;60.25
70708;SHT30;58277;47.316;18.908;2024-02-28T11:35:24;16.48;60.41
70708;SHT30;58277;47.316;18.908;2024-02-28T11:37:47;16.52;60.54
70708;SHT30;58277;47.316;18.908;2024-02-28T11:40:12;16.58;60.45
70708;SHT30;58277;47.316;18.908;2024-02-28T11:42:35;16.46;60.36
70708;SHT30;58277;47.316;18.908;2024-02-28T11:44:58;16.49;60.54
70708;SHT30;58277;47.316;18.908;2024-02-28T11:47:40;16.60;60.72
70708;SHT30;58277;47.316;18.908;2024-02-28T11:50:04;16.44;60.43
70708;SHT30;58277;47.316;18.908;2024-02-28T11:52:31;16.75;60.29
70708;SHT30;58277;47.316;18.908;2024-02-28T11:54:53;16.87;59.85
70708;SHT30;58277;47.316;18.908;2024-02-28T11:57:16;16.96;60.03
70708;SHT30;58277;47.316;18.908;2024-02-28T11:59:39;17.17;59.08
70708;SHT30;58277;47.316;18.908;2024-02-28T12:02:11;17.13;58.81
70708;SHT30;58277;47.316;18.908;2024-02-28T12:04:36;17.21;59.60
70708;SHT30;58277;47.316;18.908;2024-02-28T12:06:59;17.04;58.83
70708;SHT30;58277;47.316;18.908;2024-02-28T12:09:26;16.87;59.35
70708;SHT30;58277;47.316;18.908;2024-02-28T12:12:06;17.13;59.04
70708;SHT30;58277;47.316;18.908;2024-02-28T12:14:36;17.38;58.83
70708;SHT30;58277;47.316;18.908;2024-02-28T12:17:00;17.55;58.26
70708;SHT30;58277;47.316;18.908;2024-02-28T12:19:23;17.75;57.21
70708;SHT30;58277;47.316;18.908;2024-02-28T12:21:46;17.79;57.14
70708;SHT30;58277;47.316;18.908;2024-02-28T12:24:10;17.62;57.68
70708;SHT30;58277;47.316;18.908;2024-02-28T12:26:34;17.71;57.34
70708;SHT30;58277;47.316;18.908;2024-02-28T12:28:57;18.00;56.71
70708;SHT30;58277;47.316;18.908;2024-02-28T12:31:25;18.20;56.79
70708;SHT30;58277;47.316;18.908;2024-02-28T12:33:48;18.23;56.71
70708;SHT30;58277;47.316;18.908;2024-02-28T12:36:14;17.86;56.70
70708;SHT30;58277;47.316;18.908;2024-02-28T12:38:37;18.00;56.43
70708;SHT30;58277;47.316;18.908;2024-02-28T12:41:00;18.10;57.31
70708;SHT30;58277;47.316;18.908;2024-02-28T12:43:24;18.38;56.26
70708;SHT30;58277;47.316;18.908;2024-02-28T12:45:48;18.51;55.13
70708;SHT30;58277;47.316;18.908;2024-02-28T12:48:11;18.31;55.95
70708;SHT30;58277;47.316;18.908;2024-02-28T12:50:35;18.40;55.52
70708;SHT30;58277;47.316;18.908;2024-02-28T12:52:58;18.62;55.13
70708;SHT30;58277;47.316;18.908;2024-02-28T12:55:22;18.64;54.99
70708;SHT30;58277;47.316;18.908;2024-02-28T12:57:45;18.91;54.19
70708;SHT30;58277;47.316;18.908;2024-02-28T13:00:08;18.75;54.28
70708;SHT30;58277;47.316;18.908;2024-02-28T13:02:32;18.96;53.93
70708;SHT30;58277;47.316;18.908;2024-02-28T13:04:55;19.20;53.63
70708;SHT30;58277;47.316;18.908;2024-02-28T13:07:24;18.91;53.99
70708;SHT30;58277;47.316;18.908;2024-02-28T13:09:47;18.86;54.62
70708;SHT30;58277;47.316;18.908;2024-02-28T13:12:15;18.95;53.75
70708;SHT30;58277;47.316;18.908;2024-02-28T13:14:39;19.02;54.99
70708;SHT30;58277;47.316;18.908;2024-02-28T13:17:02;18.61;53.91
70708;SHT30;58277;47.316;18.908;2024-02-28T13:19:28;18.89;53.50
70708;SHT30;58277;47.316;18.908;2024-02-28T13:21:54;18.75;54.75
70708;SHT30;58277;47.316;18.908;2024-02-28T13:24:17;18.59;53.71
70708;SHT30;58277;47.316;18.908;2024-02-28T13:26:43;18.41;53.72
70708;SHT30;58277;47.316;18.908;2024-02-28T13:29:06;18.49;54.17
70708;SHT30;58277;47.316;18.908;2024-02-28T13:31:30;18.51;54.82
70708;SHT30;58277;47.316;18.908;2024-02-28T13:33:53;18.37;54.69
70708;SHT30;58277;47.316;18.908;2024-02-28T13:36:16;18.59;54.28
70708;SHT30;58277;47.316;18.908;2024-02-28T13:38:40;18.86;54.21
70708;SHT30;58277;47.316;18.908;2024-02-28T13:41:03;19.03;54.22
70708;SHT30;58277;47.316;18.908;2024-02-28T13:43:26;18.88;53.70
70708;SHT30;58277;47.316;18.908;2024-02-28T13:45:51;18.71;53.53
70708;SHT30;58277;47.316;18.908;2024-02-28T13:48:17;18.43;54.41
70708;SHT30;58277;47.316;18.908;2024-02-28T13:50:40;18.61;54.52
70708;SHT30;58277;47.316;18.908;2024-02-28T13:53:04;18.55;54.29
70708;SHT30;58277;47.316;18.908;2024-02-28T13:55:29;18.66;54.62
70708;SHT30;58277;47.316;18.908;2024-02-28T13:57:52;18.59;54.24
70708;SHT30;58277;47.316;18.908;2024-02-28T14:00:18;18.51;54.23
70708;SHT30;58277;47.316;18.908;2024-02-28T14:02:48;18.26;54.94
70708;SHT30;58277;47.316;18.908;2024-02-28T14:05:11;18.38;54.57
70708;SHT30;58277;47.316;18.908;2024-02-28T14:07:34;18.51;54.13
70708;SHT30;58277;47.316;18.908;2024-02-28T14:09:59;18.62;54.25
70708;SHT30;58277;47.316;18.908;2024-02-28T14:12:22;18.54;53.71
70708;SHT30;58277;47.316;18.908;2024-02-28T14:14:46;18.59;53.65
70708;SHT30;58277;47.316;18.908;2024-02-28T14:17:08;18.52;54.16
70708;SHT30;58277;47.316;18.908;2024-02-28T14:19:31;18.28;54.77
70708;SHT30;58277;47.316;18.908;2024-02-28T14:21:54;18.13;54.85
70708;SHT30;58277;47.316;18.908;2024-02-28T14:24:19;18.04;54.98
70708;SHT30;58277;47.316;18.908;2024-02-28T14:26:43;18.14;54.82
70708;SHT30;58277;47.316;18.908;2024-02-28T14:29:06;18.18;55.52
70708;SHT30;58277;47.316;18.908;2024-02-28T14:31:29;18.14;55.97
70708;SHT30;58277;47.316;18.908;2024-02-28T14:33:51;18.04;55.93
70708;SHT30;58277;47.316;18.908;2024-02-28T14:36:15;18.03;56.00
70708;SHT30;58277;47.316;18.908;2024-02-28T14:38:38;17.93;55.51
70708;SHT30;58277;47.316;18.908;2024-02-28T14:41:02;17.96;56.13
70708;SHT30;58277;47.316;18.908;2024-02-28T14:43:25;17.79;56.69
70708;SHT30;58277;47.316;18.908;2024-02-28T14:45:54;17.79;56.45
70708;SHT30;58277;47.316;18.908;2024-02-28T14:48:18;17.51;55.77
70708;SHT30;58277;47.316;18.908;2024-02-28T14:50:42;17.52;55.99
70708;SHT30;58277;47.316;18.908;2024-02-28T14:53:07;17.66;56.30
70708;SHT30;58277;47.316;18.908;2024-02-28T14:55:31;17.59;56.79